sensor_id;sensor_type;location;lat;lon;timestamp;pressure;altitude;pressure_sealevel;temperature;humidity
77013;BME280;67260;53.130;17.982;2023-05-19T00:00:17;102421.83;;;8.52;57.66
77013;BME280;67260;53.130;17.982;2023-05-19T00:03:04;102421.58;;;8.49;57.74
77013;BME280;67260;53.130;17.982;2023-05-19T00:05:31;102421.00;;;8.44;58.44
77013;BME280;67260;53.130;17.982;2023-05-19T00:07:58;102422.10;;;8.42;58.70
77013;BME280;67260;53.130;17.982;2023-05-19T00:10:26;102419.77;;;8.41;58.48
77013;BME280;67260;53.130;17.982;2023-05-19T00:12:57;102424.11;;;8.42;58.79
77013;BME280;67260;53.130;17.982;2023-05-19T00:15:23;102418.97;;;8.40;58.72
77013;BME280;67260;53.130;17.982;2023-05-19T00:17:50;102417.92;;;8.38;58.74
77013;BME280;67260;53.130;17.982;2023-05-19T00:20:17;102417.80;;;8.36;58.42
77013;BME280;67260;53.130;17.982;2023-05-19T00:22:43;102418.07;;;8.33;58.81
77013;BME280;67260;53.130;17.982;2023-05-19T00:25:10;102416.62;;;8.32;58.74
77013;BME280;67260;53.130;17.982;2023-05-19T00:27:36;102414.04;;;8.31;59.14
77013;BME280;67260;53.130;17.982;2023-05-19T00:30:03;102413.61;;;8.28;59.26
77013;BME280;67260;53.130;17.982;2023-05-19T00:32:29;102410.93;;;8.25;59.06
77013;BME280;67260;53.130;17.982;2023-05-19T00:34:56;102410.02;;;8.24;59.32
77013;BME280;67260;53.130;17.982;2023-05-19T00:37:22;102409.71;;;8.21;59.52
77013;BME280;67260;53.130;17.982;2023-05-19T00:39:48;102407.52;;;8.18;59.60
77013;BME280;67260;53.130;17.982;2023-05-19T00:42:16;102410.85;;;8.17;59.71
77013;BME280;67260;53.130;17.982;2023-05-19T00:44:42;102407.77;;;8.16;59.75
77013;BME280;67260;53.130;17.982;2023-05-19T00:47:08;102409.98;;;8.15;59.93
77013;BME280;67260;53.130;17.982;2023-05-19T00:49:34;102402.98;;;8.14;60.29
77013;BME280;67260;53.130;17.982;2023-05-19T00:52:01;102406.27;;;8.15;60.33
77013;BME280;67260;53.130;17.982;2023-05-19T00:54:27;102406.61;;;8.13;60.36
77013;BME280;67260;53.130;17.982;2023-05-19T00:56:54;102407.40;;;8.12;60.58
77013;BME280;67260;53.130;17.982;2023-05-19T00:59:23;102407.21;;;8.11;61.06
77013;BME280;67260;53.130;17.982;2023-05-19T01:01:49;102410.59;;;8.09;60.87
77013;BME280;67260;53.130;17.982;2023-05-19T01:04:18;102409.81;;;8.04;61.28
77013;BME280;67260;53.130;17.982;2023-05-19T01:06:48;102411.74;;;8.02;61.71
77013;BME280;67260;53.130;17.982;2023-05-19T01:09:22;102408.24;;;8.00;61.62
77013;BME280;67260;53.130;17.982;2023-05-19T01:11:49;102409.89;;;8.01;62.12
77013;BME280;67260;53.130;17.982;2023-05-19T01:14:16;102409.21;;;8.01;61.46
77013;BME280;67260;53.130;17.982;2023-05-19T01:16:50;102405.55;;;7.99;61.39
77013;BME280;67260;53.130;17.982;2023-05-19T01:19:35;102403.73;;;7.92;61.81
77013;BME280;67260;53.130;17.982;2023-05-19T01:27:45;102409.04;;;7.88;62.47
77013;BME280;67260;53.130;17.982;2023-05-19T01:30:29;102405.40;;;7.85;62.59
77013;BME280;67260;53.130;17.982;2023-05-19T01:33:07;102409.11;;;7.84;62.46
77013;BME280;67260;53.130;17.982;2023-05-19T01:35:44;102407.20;;;7.84;62.85
77013;BME280;67260;53.130;17.982;2023-05-19T01:38:15;102406.76;;;7.83;62.82
77013;BME280;67260;53.130;17.982;2023-05-19T01:40:43;102407.38;;;7.80;63.27
77013;BME280;67260;53.130;17.982;2023-05-19T01:43:14;102407.67;;;7.77;63.18
77013;BME280;67260;53.130;17.982;2023-05-19T01:45:43;102405.21;;;7.73;62.96
77013;BME280;67260;53.130;17.982;2023-05-19T01:48:10;102406.01;;;7.70;63.26
77013;BME280;67260;53.130;17.982;2023-05-19T01:50:39;102408.83;;;7.68;63.25
77013;BME280;67260;53.130;17.982;2023-05-19T01:53:05;102404.16;;;7.66;63.40
77013;BME280;67260;53.130;17.982;2023-05-19T01:55:45;102410.65;;;7.64;63.58
77013;BME280;67260;53.130;17.982;2023-05-19T02:09:19;102402.06;;;7.54;63.82
77013;BME280;67260;53.130;17.982;2023-05-19T02:12:05;102404.34;;;7.51;63.96
77013;BME280;67260;53.130;17.982;2023-05-19T02:14:52;102400.95;;;7.49;63.97
77013;BME280;67260;53.130;17.982;2023-05-19T02:17:21;102403.45;;;7.49;64.19
77013;BME280;67260;53.130;17.982;2023-05-19T02:19:48;102406.29;;;7.51;64.15
77013;BME280;67260;53.130;17.982;2023-05-19T02:22:14;102407.73;;;7.52;64.15
77013;BME280;67260;53.130;17.982;2023-05-19T02:24:40;102406.91;;;7.53;64.16
77013;BME280;67260;53.130;17.982;2023-05-19T02:27:06;102405.27;;;7.56;64.24
77013;BME280;67260;53.130;17.982;2023-05-19T02:29:33;102401.40;;;7.60;64.18
77013;BME280;67260;53.130;17.982;2023-05-19T02:32:00;102399.14;;;7.61;64.15
77013;BME280;67260;53.130;17.982;2023-05-19T02:34:26;102396.54;;;7.64;64.02
77013;BME280;67260;53.130;17.982;2023-05-19T02:36:52;102403.83;;;7.67;64.38
77013;BME280;67260;53.130;17.982;2023-05-19T02:39:18;102397.83;;;7.69;63.95
77013;BME280;67260;53.130;17.982;2023-05-19T02:41:44;102395.35;;;7.69;64.12
77013;BME280;67260;53.130;17.982;2023-05-19T02:44:10;102396.88;;;7.73;64.03
77013;BME280;67260;53.130;17.982;2023-05-19T02:46:37;102394.79;;;7.75;63.84
77013;BME280;67260;53.130;17.982;2023-05-19T02:49:03;102390.05;;;7.75;63.70
77013;BME280;67260;53.130;17.982;2023-05-19T02:51:29;102389.50;;;7.75;63.67
77013;BME280;67260;53.130;17.982;2023-05-19T02:53:55;102387.57;;;7.77;63.99
77013;BME280;67260;53.130;17.982;2023-05-19T02:56:21;102389.45;;;7.77;64.16
77013;BME280;67260;53.130;17.982;2023-05-19T02:58:47;102380.67;;;7.79;64.17
77013;BME280;67260;53.130;17.982;2023-05-19T03:01:13;102381.24;;;7.82;64.45
77013;BME280;67260;53.130;17.982;2023-05-19T03:03:40;102386.44;;;7.85;64.06
77013;BME280;67260;53.130;17.982;2023-05-19T03:06:06;102389.67;;;7.90;64.29
77013;BME280;67260;53.130;17.982;2023-05-19T03:08:34;102392.29;;;7.95;63.93
77013;BME280;67260;53.130;17.982;2023-05-19T03:11:01;102395.29;;;8.01;63.92
77013;BME280;67260;53.130;17.982;2023-05-19T03:13:28;102396.71;;;8.08;63.46
77013;BME280;67260;53.130;17.982;2023-05-19T03:15:54;102393.23;;;8.15;63.77
77013;BME280;67260;53.130;17.982;2023-05-19T03:18:25;102395.46;;;8.21;63.37
77013;BME280;67260;53.130;17.982;2023-05-19T03:20:51;102393.66;;;8.28;63.52
77013;BME280;67260;53.130;17.982;2023-05-19T03:23:20;102397.30;;;8.38;63.53
77013;BME280;67260;53.130;17.982;2023-05-19T03:25:46;102391.35;;;8.43;63.33
77013;BME280;67260;53.130;17.982;2023-05-19T03:28:13;102394.66;;;8.47;63.17
77013;BME280;67260;53.130;17.982;2023-05-19T03:30:39;102391.38;;;8.51;63.21
77013;BME280;67260;53.130;17.982;2023-05-19T03:33:15;102388.54;;;8.57;63.18
77013;BME280;67260;53.130;17.982;2023-05-19T03:35:41;102387.79;;;8.62;62.69
77013;BME280;67260;53.130;17.982;2023-05-19T03:38:09;102388.79;;;8.70;62.93
77013;BME280;67260;53.130;17.982;2023-05-19T03:40:35;102385.98;;;8.77;63.01
77013;BME280;67260;53.130;17.982;2023-05-19T03:43:04;102386.42;;;8.83;62.66
77013;BME280;67260;53.130;17.982;2023-05-19T03:45:33;102387.45;;;8.92;62.50
77013;BME280;67260;53.130;17.982;2023-05-19T03:48:09;102387.34;;;9.04;62.37
77013;BME280;67260;53.130;17.982;2023-05-19T03:50:58;102389.67;;;9.17;62.25
77013;BME280;67260;53.130;17.982;2023-05-19T03:53:26;102386.67;;;9.32;61.96
77013;BME280;67260;53.130;17.982;2023-05-19T03:55:52;102387.09;;;9.45;61.51
77013;BME280;67260;53.130;17.982;2023-05-19T03:58:18;102388.63;;;9.54;61.39
77013;BME280;67260;53.130;17.982;2023-05-19T04:00:44;102388.79;;;9.66;61.07
77013;BME280;67260;53.130;17.982;2023-05-19T04:03:10;102395.73;;;9.79;60.58
77013;BME280;67260;53.130;17.982;2023-05-19T04:05:36;102392.83;;;9.92;60.20
77013;BME280;67260;53.130;17.982;2023-05-19T04:08:02;102398.36;;;10.13;59.82
77013;BME280;67260;53.130;17.982;2023-05-19T04:10:28;102399.88;;;10.45;59.24
77013;BME280;67260;53.130;17.982;2023-05-19T04:12:54;102402.27;;;10.87;58.81
77013;BME280;67260;53.130;17.982;2023-05-19T04:15:21;102403.35;;;11.12;57.86
77013;BME280;67260;53.130;17.982;2023-05-19T04:17:47;102402.51;;;11.20;57.71
77013;BME280;67260;53.130;17.982;2023-05-19T04:20:13;102406.66;;;11.35;57.39
77013;BME280;67260;53.130;17.982;2023-05-19T04:22:39;102404.54;;;11.76;56.64
77013;BME280;67260;53.130;17.982;2023-05-19T04:25:06;102408.67;;;12.59;54.65
77013;BME280;67260;53.130;17.982;2023-05-19T04:27:34;102406.29;;;13.34;53.96
77013;BME280;67260;53.130;17.982;2023-05-19T04:30:05;102407.96;;;13.84;52.51
77013;BME280;67260;53.130;17.982;2023-05-19T04:32:31;102406.77;;;13.87;51.99
77013;BME280;67260;53.130;17.982;2023-05-19T04:34:58;102409.70;;;14.01;51.34
77013;BME280;67260;53.130;17.982;2023-05-19T04:37:25;102410.23;;;14.64;50.52
77013;BME280;67260;53.130;17.982;2023-05-19T04:39:52;102414.52;;;15.37;49.13
77013;BME280;67260;53.130;17.982;2023-05-19T04:42:20;102415.21;;;16.19;47.65
77013;BME280;67260;53.130;17.982;2023-05-19T04:44:47;102411.80;;;16.82;46.84
77013;BME280;67260;53.130;17.982;2023-05-19T04:47:16;102407.02;;;17.53;45.67
77013;BME280;67260;53.130;17.982;2023-05-19T04:49:43;102406.95;;;18.44;44.22
77013;BME280;67260;53.130;17.982;2023-05-19T04:52:09;102406.59;;;19.26;42.53
77013;BME280;67260;53.130;17.982;2023-05-19T04:54:37;102408.06;;;20.04;41.09
77013;BME280;67260;53.130;17.982;2023-05-19T04:57:04;102415.16;;;20.72;39.32
77013;BME280;67260;53.130;17.982;2023-05-19T04:59:32;102415.83;;;21.17;37.72
77013;BME280;67260;53.130;17.982;2023-05-19T05:01:59;102415.09;;;21.38;35.53
77013;BME280;67260;53.130;17.982;2023-05-19T05:04:26;102415.50;;;21.74;36.34
77013;BME280;67260;53.130;17.982;2023-05-19T05:06:52;102417.52;;;22.28;33.73
77013;BME280;67260;53.130;17.982;2023-05-19T05:09:19;102413.04;;;22.76;33.67
77013;BME280;67260;53.130;17.982;2023-05-19T05:11:48;102410.42;;;23.30;33.79
77013;BME280;67260;53.130;17.982;2023-05-19T05:14:14;102419.55;;;23.71;31.87
77013;BME280;67260;53.130;17.982;2023-05-19T05:16:41;102418.14;;;23.63;30.56
77013;BME280;67260;53.130;17.982;2023-05-19T05:19:09;102425.40;;;23.34;29.87
77013;BME280;67260;53.130;17.982;2023-05-19T05:21:39;102423.89;;;23.16;30.14
77013;BME280;67260;53.130;17.982;2023-05-19T05:24:08;102420.20;;;22.63;30.62
77013;BME280;67260;53.130;17.982;2023-05-19T05:26:37;102421.71;;;23.24;30.73
77013;BME280;67260;53.130;17.982;2023-05-19T05:29:03;102418.92;;;24.20;28.42
77013;BME280;67260;53.130;17.982;2023-05-19T05:31:29;102419.21;;;24.75;28.40
77013;BME280;67260;53.130;17.982;2023-05-19T05:33:56;102416.73;;;25.36;27.58
77013;BME280;67260;53.130;17.982;2023-05-19T05:36:27;102414.60;;;25.86;27.25
77013;BME280;67260;53.130;17.982;2023-05-19T05:38:53;102417.04;;;25.73;26.22
77013;BME280;67260;53.130;17.982;2023-05-19T05:41:21;102416.96;;;25.30;27.02
77013;BME280;67260;53.130;17.982;2023-05-19T05:43:47;102413.86;;;25.20;26.67
77013;BME280;67260;53.130;17.982;2023-05-19T05:46:13;102414.92;;;24.69;27.15
77013;BME280;67260;53.130;17.982;2023-05-19T05:48:40;102415.46;;;24.17;27.49
77013;BME280;67260;53.130;17.982;2023-05-19T05:51:08;102417.48;;;24.42;26.47
77013;BME280;67260;53.130;17.982;2023-05-19T05:53:39;102418.34;;;24.60;26.42
77013;BME280;67260;53.130;17.982;2023-05-19T05:56:09;102414.50;;;24.08;27.09
77013;BME280;67260;53.130;17.982;2023-05-19T05:58:41;102413.06;;;24.00;27.15
77013;BME280;67260;53.130;17.982;2023-05-19T06:01:10;102409.37;;;24.14;27.21
77013;BME280;67260;53.130;17.982;2023-05-19T06:03:40;102414.35;;;24.86;26.67
77013;BME280;67260;53.130;17.982;2023-05-19T06:06:12;102408.82;;;25.22;26.17
77013;BME280;67260;53.130;17.982;2023-05-19T06:08:39;102415.95;;;25.43;26.26
77013;BME280;67260;53.130;17.982;2023-05-19T06:11:06;102414.80;;;25.43;26.06
77013;BME280;67260;53.130;17.982;2023-05-19T06:13:35;102415.56;;;25.41;26.11
77013;BME280;67260;53.130;17.982;2023-05-19T06:16:03;102412.52;;;25.67;25.99
77013;BME280;67260;53.130;17.982;2023-05-19T06:18:34;102416.92;;;25.32;25.50
77013;BME280;67260;53.130;17.982;2023-05-19T06:21:01;102413.55;;;24.05;26.73
77013;BME280;67260;53.130;17.982;2023-05-19T06:23:29;102411.91;;;22.92;27.82
77013;BME280;67260;53.130;17.982;2023-05-19T06:25:55;102421.73;;;22.11;28.97
77013;BME280;67260;53.130;17.982;2023-05-19T06:28:22;102425.94;;;21.36;29.85
77013;BME280;67260;53.130;17.982;2023-05-19T06:30:50;102426.43;;;20.61;30.85
77013;BME280;67260;53.130;17.982;2023-05-19T06:33:25;102430.11;;;19.85;32.09
77013;BME280;67260;53.130;17.982;2023-05-19T06:35:51;102426.63;;;19.16;32.92
77013;BME280;67260;53.130;17.982;2023-05-19T06:38:17;102431.07;;;18.55;34.07
77013;BME280;67260;53.130;17.982;2023-05-19T06:40:43;102437.06;;;17.96;35.20
77013;BME280;67260;53.130;17.982;2023-05-19T06:43:09;102428.52;;;17.41;36.13
77013;BME280;67260;53.130;17.982;2023-05-19T06:45:55;102431.05;;;17.02;36.42
77013;BME280;67260;53.130;17.982;2023-05-19T06:48:23;102431.91;;;16.81;37.13
77013;BME280;67260;53.130;17.982;2023-05-19T06:50:49;102426.83;;;16.62;37.63
77013;BME280;67260;53.130;17.982;2023-05-19T06:53:18;102423.41;;;16.46;38.31
77013;BME280;67260;53.130;17.982;2023-05-19T06:55:45;102424.40;;;16.23;39.26
77013;BME280;67260;53.130;17.982;2023-05-19T06:58:11;102426.91;;;16.08;39.53
77013;BME280;67260;53.130;17.982;2023-05-19T07:00:38;102426.94;;;15.94;40.06
77013;BME280;67260;53.130;17.982;2023-05-19T07:03:05;102431.58;;;15.80;40.25
77013;BME280;67260;53.130;17.982;2023-05-19T07:05:31;102432.17;;;15.81;40.35
77013;BME280;67260;53.130;17.982;2023-05-19T07:07:57;102439.66;;;15.79;41.27
77013;BME280;67260;53.130;17.982;2023-05-19T07:10:26;102446.30;;;15.65;41.43
77013;BME280;67260;53.130;17.982;2023-05-19T07:12:53;102449.84;;;15.52;41.82
77013;BME280;67260;53.130;17.982;2023-05-19T07:15:21;102451.02;;;15.29;42.57
77013;BME280;67260;53.130;17.982;2023-05-19T07:17:47;102450.17;;;15.15;42.72
77013;BME280;67260;53.130;17.982;2023-05-19T07:20:13;102453.26;;;15.09;43.28
77013;BME280;67260;53.130;17.982;2023-05-19T07:22:40;102449.18;;;14.97;43.33
77013;BME280;67260;53.130;17.982;2023-05-19T07:25:06;102451.00;;;14.94;43.67
77013;BME280;67260;53.130;17.982;2023-05-19T07:27:33;102451.20;;;14.94;43.21
77013;BME280;67260;53.130;17.982;2023-05-19T07:29:59;102451.06;;;14.97;43.42
77013;BME280;67260;53.130;17.982;2023-05-19T07:32:26;102451.09;;;15.01;43.52
77013;BME280;67260;53.130;17.982;2023-05-19T07:34:52;102446.85;;;15.04;43.76
77013;BME280;67260;53.130;17.982;2023-05-19T07:37:19;102447.96;;;15.11;43.55
77013;BME280;67260;53.130;17.982;2023-05-19T07:39:46;102443.46;;;15.15;43.61
77013;BME280;67260;53.130;17.982;2023-05-19T07:42:13;102445.11;;;15.14;44.15
77013;BME280;67260;53.130;17.982;2023-05-19T07:44:39;102443.52;;;15.17;44.22
77013;BME280;67260;53.130;17.982;2023-05-19T07:47:05;102442.86;;;15.22;44.27
77013;BME280;67260;53.130;17.982;2023-05-19T07:49:31;102441.93;;;15.30;44.32
77013;BME280;67260;53.130;17.982;2023-05-19T07:51:57;102441.91;;;15.35;44.64
77013;BME280;67260;53.130;17.982;2023-05-19T07:54:23;102438.76;;;15.36;44.33
77013;BME280;67260;53.130;17.982;2023-05-19T07:56:49;102436.16;;;15.35;44.48
77013;BME280;67260;53.130;17.982;2023-05-19T07:59:15;102439.59;;;15.38;44.56
77013;BME280;67260;53.130;17.982;2023-05-19T08:01:41;102434.94;;;15.38;44.61
77013;BME280;67260;53.130;17.982;2023-05-19T08:04:07;102434.31;;;15.37;44.74
77013;BME280;67260;53.130;17.982;2023-05-19T08:06:33;102434.13;;;15.42;44.56
77013;BME280;67260;53.130;17.982;2023-05-19T08:08:59;102434.64;;;15.50;44.70
77013;BME280;67260;53.130;17.982;2023-05-19T08:11:25;102432.06;;;15.53;44.61
77013;BME280;67260;53.130;17.982;2023-05-19T08:13:51;102431.65;;;15.59;44.42
77013;BME280;67260;53.130;17.982;2023-05-19T08:16:18;102427.84;;;15.65;44.55
77013;BME280;67260;53.130;17.982;2023-05-19T08:18:44;102425.25;;;15.65;44.80
77013;BME280;67260;53.130;17.982;2023-05-19T08:21:10;102421.58;;;15.64;44.92
77013;BME280;67260;53.130;17.982;2023-05-19T08:23:36;102421.02;;;15.69;45.07
77013;BME280;67260;53.130;17.982;2023-05-19T08:26:03;102422.07;;;15.75;45.11
77013;BME280;67260;53.130;17.982;2023-05-19T08:28:31;102421.58;;;15.82;44.99
77013;BME280;67260;53.130;17.982;2023-05-19T08:30:57;102422.16;;;15.84;44.95
77013;BME280;67260;53.130;17.982;2023-05-19T08:33:23;102425.08;;;15.93;45.04
77013;BME280;67260;53.130;17.982;2023-05-19T08:35:49;102423.70;;;16.00;44.84
77013;BME280;67260;53.130;17.982;2023-05-19T08:38:16;102424.33;;;15.98;44.78
77013;BME280;67260;53.130;17.982;2023-05-19T08:40:42;102426.65;;;15.94;44.81
77013;BME280;67260;53.130;17.982;2023-05-19T08:43:11;102431.03;;;15.96;44.49
77013;BME280;67260;53.130;17.982;2023-05-19T08:45:39;102437.27;;;16.09;44.34
77013;BME280;67260;53.130;17.982;2023-05-19T08:48:08;102431.30;;;16.16;44.23
77013;BME280;67260;53.130;17.982;2023-05-19T08:50:39;102430.11;;;16.32;44.12
77013;BME280;67260;53.130;17.982;2023-05-19T08:53:13;102423.48;;;16.61;43.81
77013;BME280;67260;53.130;17.982;2023-05-19T08:55:46;102421.60;;;16.84;43.42
77013;BME280;67260;53.130;17.982;2023-05-19T08:58:18;102423.98;;;17.01;43.23
77013;BME280;67260;53.130;17.982;2023-05-19T09:00:47;102419.92;;;17.18;43.15
77013;BME280;67260;53.130;17.982;2023-05-19T09:03:15;102415.52;;;17.34;42.51
77013;BME280;67260;53.130;17.982;2023-05-19T09:05:43;102415.20;;;17.49;42.45
77013;BME280;67260;53.130;17.982;2023-05-19T09:08:10;102415.73;;;17.66;42.22
77013;BME280;67260;53.130;17.982;2023-05-19T09:10:37;102416.45;;;17.90;41.73
77013;BME280;67260;53.130;17.982;2023-05-19T09:13:03;102412.47;;;18.17;41.44
77013;BME280;67260;53.130;17.982;2023-05-19T09:15:30;102408.44;;;18.48;41.09
77013;BME280;67260;53.130;17.982;2023-05-19T09:18:13;102408.70;;;18.91;40.32
77013;BME280;67260;53.130;17.982;2023-05-19T09:20:42;102409.78;;;19.34;39.34
77013;BME280;67260;53.130;17.982;2023-05-19T09:23:13;102409.11;;;19.57;38.34
77013;BME280;67260;53.130;17.982;2023-05-19T09:25:48;102407.67;;;19.66;38.23
77013;BME280;67260;53.130;17.982;2023-05-19T09:31:03;102400.91;;;19.96;38.02
77013;BME280;67260;53.130;17.982;2023-05-19T09:33:32;102403.82;;;20.38;37.56
77013;BME280;67260;53.130;17.982;2023-05-19T09:35:59;102400.63;;;20.86;36.72
77013;BME280;67260;53.130;17.982;2023-05-19T09:38:26;102395.80;;;21.58;35.72
77013;BME280;67260;53.130;17.982;2023-05-19T09:40:55;102390.91;;;22.06;35.15
77013;BME280;67260;53.130;17.982;2023-05-19T09:43:22;102395.37;;;22.10;34.26
77013;BME280;67260;53.130;17.982;2023-05-19T09:46:06;102393.80;;;22.00;34.92
77013;BME280;67260;53.130;17.982;2023-05-19T09:48:36;102396.86;;;21.93;34.92
77013;BME280;67260;53.130;17.982;2023-05-19T09:51:03;102400.86;;;21.69;34.78
77013;BME280;67260;53.130;17.982;2023-05-19T09:53:31;102397.98;;;21.29;35.06
77013;BME280;67260;53.130;17.982;2023-05-19T09:55:57;102400.14;;;20.83;35.50
77013;BME280;67260;53.130;17.982;2023-05-19T09:58:25;102398.75;;;20.50;36.06
77013;BME280;67260;53.130;17.982;2023-05-19T10:00:52;102402.09;;;20.24;36.19
77013;BME280;67260;53.130;17.982;2023-05-19T10:03:21;102398.33;;;20.00;36.63
77013;BME280;67260;53.130;17.982;2023-05-19T10:05:49;102400.46;;;19.68;37.17
77013;BME280;67260;53.130;17.982;2023-05-19T10:08:16;102392.73;;;19.49;37.52
77013;BME280;67260;53.130;17.982;2023-05-19T10:10:45;102397.46;;;19.38;37.78
77013;BME280;67260;53.130;17.982;2023-05-19T10:13:12;102395.42;;;19.24;37.81
77013;BME280;67260;53.130;17.982;2023-05-19T10:15:42;102397.60;;;19.18;37.71
77013;BME280;67260;53.130;17.982;2023-05-19T10:18:19;102397.98;;;19.13;37.88
77013;BME280;67260;53.130;17.982;2023-05-19T10:20:48;102398.69;;;19.08;37.83
77013;BME280;67260;53.130;17.982;2023-05-19T10:23:14;102400.69;;;19.11;37.82
77013;BME280;67260;53.130;17.982;2023-05-19T10:25:41;102400.81;;;19.35;37.91
77013;BME280;67260;53.130;17.982;2023-05-19T10:28:13;102401.08;;;19.65;37.60
77013;BME280;67260;53.130;17.982;2023-05-19T10:30:48;102403.54;;;20.04;37.22
77013;BME280;67260;53.130;17.982;2023-05-19T10:33:17;102403.77;;;20.38;36.62
77013;BME280;67260;53.130;17.982;2023-05-19T10:36:07;102409.55;;;20.52;36.37
77013;BME280;67260;53.130;17.982;2023-05-19T10:38:44;102407.23;;;20.77;36.16
77013;BME280;67260;53.130;17.982;2023-05-19T10:41:35;102409.69;;;20.90;36.24
77013;BME280;67260;53.130;17.982;2023-05-19T10:44:08;102406.08;;;20.98;35.80
77013;BME280;67260;53.130;17.982;2023-05-19T10:46:39;102400.41;;;20.98;35.93
77013;BME280;67260;53.130;17.982;2023-05-19T10:49:06;102399.92;;;21.16;35.63
77013;BME280;67260;53.130;17.982;2023-05-19T10:51:33;102396.41;;;21.23;35.71
77013;BME280;67260;53.130;17.982;2023-05-19T10:54:07;102396.80;;;21.21;35.63
77013;BME280;67260;53.130;17.982;2023-05-19T10:56:38;102402.14;;;21.15;35.74
77013;BME280;67260;53.130;17.982;2023-05-19T10:59:31;102405.95;;;20.95;35.78
77013;BME280;67260;53.130;17.982;2023-05-19T11:02:02;102419.38;;;20.47;36.00
77013;BME280;67260;53.130;17.982;2023-05-19T11:04:48;102420.62;;;19.77;37.15
77013;BME280;67260;53.130;17.982;2023-05-19T11:07:19;102424.21;;;19.13;38.31
77013;BME280;67260;53.130;17.982;2023-05-19T11:09:50;102426.55;;;18.60;39.59
77013;BME280;67260;53.130;17.982;2023-05-19T11:12:21;102429.11;;;18.16;40.74
77013;BME280;67260;53.130;17.982;2023-05-19T11:14:52;102427.05;;;17.79;41.49
77013;BME280;67260;53.130;17.982;2023-05-19T11:17:20;102432.73;;;17.46;42.14
77013;BME280;67260;53.130;17.982;2023-05-19T11:19:56;102435.09;;;17.08;43.67
77013;BME280;67260;53.130;17.982;2023-05-19T11:22:25;102430.42;;;16.74;44.72
77013;BME280;67260;53.130;17.982;2023-05-19T11:24:55;102431.23;;;16.52;46.30
77013;BME280;67260;53.130;17.982;2023-05-19T11:27:30;102438.66;;;16.32;46.85
77013;BME280;67260;53.130;17.982;2023-05-19T11:29:59;102433.19;;;16.12;47.73
77013;BME280;67260;53.130;17.982;2023-05-19T11:32:30;102432.75;;;16.04;47.23
77013;BME280;67260;53.130;17.982;2023-05-19T11:34:59;102433.09;;;16.05;48.81
77013;BME280;67260;53.130;17.982;2023-05-19T11:37:31;102435.26;;;16.01;49.02
77013;BME280;67260;53.130;17.982;2023-05-19T11:40:04;102433.00;;;15.83;49.37
77013;BME280;67260;53.130;17.982;2023-05-19T11:42:49;102441.15;;;15.63;50.04
77013;BME280;67260;53.130;17.982;2023-05-19T11:45:27;102434.71;;;15.49;50.68
77013;BME280;67260;53.130;17.982;2023-05-19T11:48:11;102431.96;;;15.36;51.14
77013;BME280;67260;53.130;17.982;2023-05-19T11:50:40;102429.52;;;15.30;51.72
77013;BME280;67260;53.130;17.982;2023-05-19T11:53:10;102427.70;;;15.23;52.68
77013;BME280;67260;53.130;17.982;2023-05-19T11:55:44;102432.23;;;15.20;52.52
77013;BME280;67260;53.130;17.982;2023-05-19T11:58:15;102424.75;;;15.18;52.19
77013;BME280;67260;53.130;17.982;2023-05-19T12:00:46;102418.08;;;15.23;52.00
77013;BME280;67260;53.130;17.982;2023-05-19T12:03:13;102422.02;;;15.33;53.08
77013;BME280;67260;53.130;17.982;2023-05-19T12:05:43;102422.70;;;15.26;53.39
77013;BME280;67260;53.130;17.982;2023-05-19T12:08:54;102426.16;;;15.14;53.58
77013;BME280;67260;53.130;17.982;2023-05-19T12:11:50;102429.38;;;14.93;53.84
77013;BME280;67260;53.130;17.982;2023-05-19T12:14:50;102424.59;;;14.72;53.97
77013;BME280;67260;53.130;17.982;2023-05-19T12:17:19;102423.66;;;14.61;54.26
77013;BME280;67260;53.130;17.982;2023-05-19T12:20:09;102423.32;;;14.50;54.72
77013;BME280;67260;53.130;17.982;2023-05-19T12:23:59;102427.70;;;14.22;55.40
77013;BME280;67260;53.130;17.982;2023-05-19T12:26:42;102422.35;;;14.14;56.31
77013;BME280;67260;53.130;17.982;2023-05-19T12:29:27;102427.52;;;14.10;56.26
77013;BME280;67260;53.130;17.982;2023-05-19T12:36:31;102428.94;;;14.12;56.60
77013;BME280;67260;53.130;17.982;2023-05-19T12:38:58;102428.84;;;14.21;56.40
77013;BME280;67260;53.130;17.982;2023-05-19T12:41:25;102429.80;;;14.27;56.91
77013;BME280;67260;53.130;17.982;2023-05-19T12:44:14;102425.73;;;14.23;56.92
77013;BME280;67260;53.130;17.982;2023-05-19T12:47:00;102419.59;;;14.29;57.23
77013;BME280;67260;53.130;17.982;2023-05-19T12:49:56;102415.87;;;14.35;56.58
77013;BME280;67260;53.130;17.982;2023-05-19T12:52:31;102415.75;;;14.42;56.59
77013;BME280;67260;53.130;17.982;2023-05-19T12:55:14;102421.30;;;14.41;57.32
77013;BME280;67260;53.130;17.982;2023-05-19T12:58:14;102411.35;;;14.35;57.82
77013;BME280;67260;53.130;17.982;2023-05-19T13:01:16;102410.40;;;14.41;57.37
77013;BME280;67260;53.130;17.982;2023-05-19T13:03:46;102413.48;;;14.62;57.32
77013;BME280;67260;53.130;17.982;2023-05-19T13:06:27;102410.35;;;14.87;57.29
77013;BME280;67260;53.130;17.982;2023-05-19T13:08:53;102401.85;;;15.01;56.86
77013;BME280;67260;53.130;17.982;2023-05-19T13:11:20;102404.52;;;15.06;56.74
77013;BME280;67260;53.130;17.982;2023-05-19T13:13:50;102402.36;;;15.20;56.98
77013;BME280;67260;53.130;17.982;2023-05-19T13:16:17;102400.44;;;15.37;56.83
77013;BME280;67260;53.130;17.982;2023-05-19T13:18:44;102397.38;;;15.48;56.87
77013;BME280;67260;53.130;17.982;2023-05-19T13:21:11;102396.24;;;15.51;57.22